Flugplatz Dortmund

Prognose für EDLW

vom 23.07. um 17:00 UTC

Am 23.07. zwischen 18:00 und 22:00 UTC übergehend zu

Wind 5 kt aus 170°

Sichtweite 10 km oder mehr

aufgelockert bewölkt in 3500 ft


Am 23.07. zwischen 18:00 UTC und 18:00 UTC

Wind 8 kt aus 230°

Sichtweite 10 km oder mehr

aufgelockert bewölkt in 3500 ft


Zwischen 04:00 UTC und 11:00 UTC zeitweise

Sichtweite 3500 m

Regen

aufgebrochene Bewölkung in 1400 ft


Zwischen 10:00 und 12:00 UTC übergehend zu

Wind 6 kt aus 300°

Sichtweite 10 km oder mehr

aufgelockert bewölkt in 3500 ft


Zwischen 12:00 UTC und 18:00 UTC zeitweise

Regenschauer

aufgebrochene Bewölkung in 2000 ft


Zwischen 15:00 UTC und 18:00 UTC zeitweise mit einer Wahrscheinlichkeit von 30%

Code: TSRA

TAF EDLW 231700Z 2318/2418 23008KT 9999 SCT035 BECMG 2318/2322 17005KT TEMPO 2404/2411 3500 RA BKN014 BECMG 2410/2412 30006KT TEMPO 2412/2418 SHRA BKN020CB PROB30 TEMPO 2415/2418 TSRA
Impressum